Time;durP1;ratioP1;P1;durP2;ratioP2;P2;SDS_P1;SDS_P2;PMS_P1;PMS_P2;Temp;Humidity;BMP_temperature;BMP_pressure;BME280_temperature;BME280_humidity;BME280_pressure;Samples;Min_cycle;Max_cycle;Signal;HPM_P1;HPM_P2
2023/02/10 00:01:19;;;;;;;;;;;;;;;19.13;25.80;103257.25;105906;1284;61439;-80
2023/02/10 00:03:44;;;;;;;;;;;;;;;19.13;25.76;103255.30;105822;1286;76717;-80
2023/02/10 00:06:11;;;;;;;;;;;;;;;19.13;25.81;103258.51;105844;1285;60432;-80
2023/02/10 00:08:37;;;;;;;;;;;;;;;19.13;25.87;103255.83;105692;1286;61355;-80
2023/02/10 00:11:03;;;;;;;;;;;;;;;19.13;25.83;103250.48;105927;1286;61362;-80
2023/02/10 00:13:30;;;;;;;;;;;;;;;19.13;25.71;103252.44;105859;1286;61222;-80
2023/02/10 00:16:02;;;;;;;;;;;;;;;19.13;25.76;103251.36;105922;1286;61401;-80
2023/02/10 00:18:28;;;;;;;;;;;;;;;19.13;25.69;103244.40;105880;1290;61151;-80
2023/02/10 00:20:54;;;;;;;;;;;;;;;19.13;25.75;103245.66;105917;1286;61374;-80
2023/02/10 00:23:19;;;;;;;;;;;;;;;19.13;25.84;103240.29;105850;1286;61240;-80
2023/02/10 00:25:46;;;;;;;;;;;;;;;19.13;25.74;103237.08;105882;1286;61418;-80
2023/02/10 00:28:11;;;;;;;;;;;;;;;19.14;25.66;103230.29;105876;1285;61466;-80
2023/02/10 00:30:37;;;;;;;;;;;;;;;19.13;25.74;103226.54;105904;1285;61288;-80
2023/02/10 00:33:03;;;;;;;;;;;;;;;19.14;25.83;103223.86;105852;1286;73541;-80
2023/02/10 00:35:28;;;;;;;;;;;;;;;19.14;25.74;103224.91;105845;1291;61291;-80
2023/02/10 00:37:55;;;;;;;;;;;;;;;19.14;25.80;103220.47;105857;1286;61330;-80
2023/02/10 00:40:20;;;;;;;;;;;;;;;19.15;25.66;103211.35;105834;1286;61266;-80
2023/02/10 00:42:46;;;;;;;;;;;;;;;19.14;25.71;103208.31;105678;1286;61701;-80
2023/02/10 00:45:11;;;;;;;;;;;;;;;19.14;25.72;103211.36;105893;1289;59320;-80
2023/02/10 00:47:37;;;;;;;;;;;;;;;19.15;25.74;103210.63;105893;1285;74636;-80
2023/02/10 00:50:03;;;;;;;;;;;;;;;19.14;25.78;103212.60;105878;1286;61272;-80
2023/02/10 00:52:31;;;;;;;;;;;;;;;19.14;25.70;103210.29;105875;1285;61269;-80
2023/02/10 00:54:57;;;;;;;;;;;;;;;19.14;25.71;103208.14;105824;1284;72422;-80
2023/02/10 00:57:23;;;;;;;;;;;;;;;19.14;25.73;103205.46;105917;1286;61309;-80
2023/02/10 00:59:48;;;;;;;;;;;;;;;19.14;25.79;103204.41;105895;1286;61751;-80
2023/02/10 01:02:14;;;;;;;;;;;;;;;19.14;25.72;103199.75;105833;1286;61390;-80
2023/02/10 01:04:40;;;;;;;;;;;;;;;19.14;25.69;103200.29;105700;1291;60316;-80
2023/02/10 01:07:05;;;;;;;;;;;;;;;19.15;25.79;103200.61;105944;1286;61237;-80
2023/02/10 01:09:31;;;;;;;;;;;;;;;19.14;25.66;103203.86;105833;1290;75224;-81
2023/02/10 01:11:57;;;;;;;;;;;;;;;19.15;25.70;103204.55;105949;1285;61311;-81
2023/02/10 01:14:22;;;;;;;;;;;;;;;19.15;25.75;103198.31;105699;1289;61298;-81
2023/02/10 01:16:48;;;;;;;;;;;;;;;19.14;25.66;103200.30;105834;1290;61737;-80
2023/02/10 01:19:13;;;;;;;;;;;;;;;19.14;25.78;103204.95;105937;1286;61353;-80
2023/02/10 01:21:40;;;;;;;;;;;;;;;19.14;25.74;103200.65;105743;1291;59303;-80
2023/02/10 01:24:06;;;;;;;;;;;;;;;19.14;25.64;103200.82;105943;1286;61147;-81
2023/02/10 01:26:35;;;;;;;;;;;;;;;19.15;25.64;103196.17;105859;1290;61173;-81
2023/02/10 01:29:01;;;;;;;;;;;;;;;19.15;25.86;103194.55;105928;1286;72284;-81
2023/02/10 01:31:26;;;;;;;;;;;;;;;19.15;25.77;103190.09;105943;1288;61377;-81
2023/02/10 01:33:52;;;;;;;;;;;;;;;19.15;25.74;103188.66;105958;1285;61384;-81
2023/02/10 01:36:19;;;;;;;;;;;;;;;19.15;25.68;103184.73;105859;1286;61300;-81
2023/02/10 01:38:57;;;;;;;;;;;;;;;;;;;;;
2023/02/10 01:41:23;;;;;;;;;;;;;;;19.15;25.77;103179.19;105846;1286;75236;-80
2023/02/10 01:43:56;;;;;;;;;;;;;;;19.15;25.87;103180.27;105893;1290;61377;-80
2023/02/10 01:46:22;;;;;;;;;;;;;;;19.15;25.72;103179.73;105934;1286;61167;-80
2023/02/10 01:48:47;;;;;;;;;;;;;;;19.16;25.70;103177.05;105829;1291;61268;-80
2023/02/10 01:51:13;;;;;;;;;;;;;;;19.15;25.67;103178.30;105931;1286;61295;-80
2023/02/10 01:53:39;;;;;;;;;;;;;;;19.15;25.75;103168.11;105861;1291;61765;-80
2023/02/10 01:56:05;;;;;;;;;;;;;;;19.15;25.71;103166.70;105835;1290;61292;-80
2023/02/10 01:58:31;;;;;;;;;;;;;;;19.15;25.90;103167.23;105838;1291;61381;-80
2023/02/10 02:01:00;;;;;;;;;;;;;;;19.15;25.67;103162.77;105878;1286;61339;-80
2023/02/10 02:03:26;;;;;;;;;;;;;;;19.15;25.68;103167.94;105925;1288;61260;-80
2023/02/10 02:05:51;;;;;;;;;;;;;;;19.15;25.65;103165.64;105870;1286;61275;-80
2023/02/10 02:08:24;;;;;;;;;;;;;;;19.15;25.65;103162.78;105862;1291;61336;-80
2023/02/10 02:10:59;;;;;;;;;;;;;;;19.15;25.73;103156.55;105925;1288;75445;-80
2023/02/10 02:13:27;;;;;;;;;;;;;;;19.15;25.77;103154.39;105830;1286;61077;-80
2023/02/10 02:16:12;;;;;;;;;;;;;;;19.15;25.72;103147.60;105923;1285;61164;-80
2023/02/10 02:18:47;;;;;;;;;;;;;;;19.15;25.68;103148.84;105935;1288;72314;-80
2023/02/10 02:21:18;;;;;;;;;;;;;;;19.15;25.73;103144.92;105924;1288;75494;-80
2023/02/10 02:23:49;;;;;;;;;;;;;;;19.15;25.71;103141.00;105938;1286;61245;-80
2023/02/10 02:26:33;;;;;;;;;;;;;;;19.15;25.69;103136.73;105855;1286;61269;-80
2023/02/10 02:28:59;;;;;;;;;;;;;;;19.16;25.68;103127.60;105923;1289;72744;-80
2023/02/10 02:31:30;;;;;;;;;;;;;;;19.15;25.60;103127.41;105944;1288;61249;-80
2023/02/10 02:33:58;;;;;;;;;;;;;;;19.15;25.66;103125.81;105930;1286;61109;-80
2023/02/10 02:36:30;;;;;;;;;;;;;;;19.15;25.71;103121.52;105854;1286;61331;-80
2023/02/10 02:39:00;;;;;;;;;;;;;;;19.16;25.76;103128.30;105953;1285;72551;-80
2023/02/10 02:41:26;;;;;;;;;;;;;;;19.15;25.70;103127.94;105854;1292;75503;-80
2023/02/10 02:43:52;;;;;;;;;;;;;;;19.15;25.64;103125.63;105874;1287;61258;-80
2023/02/10 02:46:17;;;;;;;;;;;;;;;19.15;25.66;103124.39;105841;1291;61403;-80
2023/02/10 02:49:02;;;;;;;;;;;;;;;19.16;25.60;103122.77;105930;1288;61340;-80
2023/02/10 02:51:31;;;;;;;;;;;;;;;19.16;25.70;103114.91;105698;1287;74290;-80
2023/02/10 02:53:59;;;;;;;;;;;;;;;19.16;25.77;103120.63;105927;1286;61139;-80
2023/02/10 02:56:25;;;;;;;;;;;;;;;19.16;25.64;103115.45;105928;1285;61292;-80
2023/02/10 02:59:04;;;;;;;;;;;;;;;19.16;25.84;103109.39;105841;1292;61272;-80
2023/02/10 03:01:34;;;;;;;;;;;;;;;19.16;25.83;103117.95;105831;1291;74449;-80
2023/02/10 03:03:59;;;;;;;;;;;;;;;19.16;25.70;103117.41;105850;1286;61257;-80
2023/02/10 03:06:25;;;;;;;;;;;;;;;19.16;25.68;103112.41;105878;1286;61837;-80
2023/02/10 03:08:50;;;;;;;;;;;;;;;19.16;25.77;103112.59;105856;1287;61300;-80
2023/02/10 03:11:16;;;;;;;;;;;;;;;19.16;25.74;103116.17;105846;1286;61299;-80
2023/02/10 03:13:43;;;;;;;;;;;;;;;19.16;25.68;103117.75;105898;1286;60041;-80
2023/02/10 03:16:08;;;;;;;;;;;;;;;19.16;25.84;103115.27;105854;1285;61212;-80
2023/02/10 03:18:34;;;;;;;;;;;;;;;19.16;25.80;103114.56;105868;1286;61333;-80
2023/02/10 03:21:00;;;;;;;;;;;;;;;19.16;25.82;103111.17;105837;1286;62682;-80
2023/02/10 03:23:25;;;;;;;;;;;;;;;19.16;25.84;103112.42;105859;1286;61403;-80
2023/02/10 03:25:51;;;;;;;;;;;;;;;19.15;25.65;103115.98;105854;1291;61217;-80
2023/02/10 03:28:17;;;;;;;;;;;;;;;19.16;25.75;103115.44;105988;1285;61245;-80
2023/02/10 03:30:46;;;;;;;;;;;;;;;19.16;25.73;103113.64;105851;1289;61368;-80
2023/02/10 03:33:13;;;;;;;;;;;;;;;19.16;25.66;103115.45;105809;1286;73343;-81
2023/02/10 03:35:39;;;;;;;;;;;;;;;19.16;25.63;103112.58;105817;1291;61164;-81
2023/02/10 03:38:05;;;;;;;;;;;;;;;19.16;25.74;103110.09;105964;1286;61183;-80
2023/02/10 03:40:31;;;;;;;;;;;;;;;19.16;25.71;103111.89;105882;1286;61240;-80
2023/02/10 03:42:57;;;;;;;;;;;;;;;19.16;25.73;103105.63;105821;1290;61332;-80
2023/02/10 03:45:22;;;;;;;;;;;;;;;19.16;25.63;103100.11;105855;1285;61353;-80
2023/02/10 03:47:48;;;;;;;;;;;;;;;19.16;25.69;103099.36;105852;1290;61371;-80
2023/02/10 03:50:14;;;;;;;;;;;;;;;19.17;25.69;103091.70;105901;1286;61208;-80
2023/02/10 03:52:39;;;;;;;;;;;;;;;19.17;25.76;103089.71;105842;1285;60390;-80
2023/02/10 03:55:05;;;;;;;;;;;;;;;19.17;25.64;103088.46;105873;1291;61227;-80
2023/02/10 03:57:31;;;;;;;;;;;;;;;19.17;25.81;103091.67;105594;1289;61281;-81
2023/02/10 04:00:00;;;;;;;;;;;;;;;19.17;25.74;103089.89;105513;1288;61353;-81
2023/02/10 04:02:25;;;;;;;;;;;;;;;19.17;25.73;103089.00;105508;1289;61265;-81
2023/02/10 04:04:51;;;;;;;;;;;;;;;19.17;25.84;103084.54;105470;1289;61348;-80
2023/02/10 04:07:17;;;;;;;;;;;;;;;19.17;25.72;103085.78;105622;1292;61282;-80
2023/02/10 04:09:43;;;;;;;;;;;;;;;19.18;25.65;103083.27;105494;1289;61381;-80
2023/02/10 04:12:09;;;;;;;;;;;;;;;19.18;25.82;103085.41;105498;1289;61289;-80
2023/02/10 04:14:36;;;;;;;;;;;;;;;19.18;25.75;103081.66;105482;1291;61247;-81
2023/02/10 04:17:01;;;;;;;;;;;;;;;19.17;25.73;103081.13;105494;1289;61397;-80
2023/02/10 04:19:27;;;;;;;;;;;;;;;19.18;25.72;103077.56;105555;1289;61308;-80
2023/02/10 04:21:52;;;;;;;;;;;;;;;19.18;25.77;103078.62;105484;1289;61253;-80
2023/02/10 04:24:18;;;;;;;;;;;;;;;19.17;25.70;103073.98;105458;1291;59253;-80
2023/02/10 04:26:43;;;;;;;;;;;;;;;19.18;25.59;103076.11;105469;1293;61397;-80
2023/02/10 04:29:09;;;;;;;;;;;;;;;19.18;25.74;103077.71;105670;1291;61441;-80
2023/02/10 04:31:34;;;;;;;;;;;;;;;19.18;25.86;103074.15;105887;1291;61285;-80
2023/02/10 04:34:00;;;;;;;;;;;;;;;19.18;25.68;103075.05;105909;1286;61138;-80
2023/02/10 04:36:26;;;;;;;;;;;;;;;19.17;25.57;103070.42;105938;1284;61374;-80
2023/02/10 04:38:54;;;;;;;;;;;;;;;19.17;25.64;103062.59;105869;1286;61340;-80
2023/02/10 04:41:20;;;;;;;;;;;;;;;19.17;25.72;103060.25;105931;1286;75436;-80
2023/02/10 04:43:46;;;;;;;;;;;;;;;19.17;25.75;103057.39;105863;1286;61214;-80
2023/02/10 04:46:11;;;;;;;;;;;;;;;19.18;25.65;103056.33;105882;1286;61366;-80
2023/02/10 04:48:40;;;;;;;;;;;;;;;19.18;25.77;103058.28;105696;1286;61395;-80
2023/02/10 04:51:10;;;;;;;;;;;;;;;19.17;25.63;103061.14;105832;1286;61298;-80
2023/02/10 04:53:36;;;;;;;;;;;;;;;19.17;25.73;103065.77;105855;1292;61192;-80
2023/02/10 04:56:03;;;;;;;;;;;;;;;19.18;25.73;103071.65;105887;1286;61256;-80
2023/02/10 04:58:29;;;;;;;;;;;;;;;19.17;25.78;103064.71;105848;1290;73483;-80
2023/02/10 05:00:55;;;;;;;;;;;;;;;19.18;25.75;103066.48;105846;1290;61352;-80
2023/02/10 05:03:21;;;;;;;;;;;;;;;19.18;25.82;103066.31;105856;1286;61783;-80
2023/02/10 05:05:47;;;;;;;;;;;;;;;19.18;25.74;103070.95;105960;1285;61244;-80
2023/02/10 05:08:13;;;;;;;;;;;;;;;19.18;25.71;103074.33;105908;1285;61269;-80
2023/02/10 05:10:38;;;;;;;;;;;;;;;19.18;25.80;103062.20;105840;1289;61458;-80
2023/02/10 05:13:04;;;;;;;;;;;;;;;19.18;25.78;103061.14;105881;1286;61714;-80
2023/02/10 05:15:30;;;;;;;;;;;;;;;19.18;25.81;103062.56;105711;1291;61144;-80
2023/02/10 05:17:56;;;;;;;;;;;;;;;19.17;25.71;103060.08;105926;1286;61135;-80
2023/02/10 05:20:22;;;;;;;;;;;;;;;19.16;25.78;103059.57;105851;1286;61298;-81
2023/02/10 05:22:47;;;;;;;;;;;;;;;19.15;25.74;103065.85;105866;1288;61416;-81
2023/02/10 05:25:13;;;;;;;;;;;;;;;19.13;25.77;103069.11;105860;1286;61281;-82
2023/02/10 05:27:39;;;;;;;;;;;;;;;19.12;25.75;103071.48;105880;1291;67029;-81
2023/02/10 05:30:06;;;;;;;;;;;;;;;19.11;25.90;103079.51;105931;1286;61199;-81
2023/02/10 05:32:32;;;;;;;;;;;;;;;19.10;25.90;103085.08;105808;1286;72413;-81
2023/02/10 05:34:57;;;;;;;;;;;;;;;19.07;25.92;103089.97;105912;1285;61369;-81
2023/02/10 05:37:23;;;;;;;;;;;;;;;19.03;25.95;103095.25;105897;1286;60083;-81
2023/02/10 05:39:49;;;;;;;;;;;;;;;18.99;25.98;103097.87;105951;1286;61154;-82
2023/02/10 05:42:15;;;;;;;;;;;;;;;18.94;25.92;103101.75;105854;1286;61265;-81
2023/02/10 05:44:40;;;;;;;;;;;;;;;18.89;25.80;103103.63;105878;1286;61272;-81
2023/02/10 05:47:06;;;;;;;;;;;;;;;18.86;26.00;103106.70;106063;1285;60679;-81
2023/02/10 05:49:34;;;;;;;;;;;;;;;18.82;25.87;103107.00;105958;1285;61988;-81
2023/02/10 05:52:00;;;;;;;;;;;;;;;18.79;25.83;103108.16;106035;1288;61153;-81
2023/02/10 05:54:25;;;;;;;;;;;;;;;18.75;25.90;103105.57;105916;1286;61338;-82
2023/02/10 05:56:51;;;;;;;;;;;;;;;18.71;26.04;103101.02;105945;1286;60391;-81
2023/02/10 05:59:17;;;;;;;;;;;;;;;18.67;25.89;103105.77;105980;1286;61298;-81
2023/02/10 06:01:42;;;;;;;;;;;;;;;18.64;25.99;103107.10;105868;1286;61281;-81
2023/02/10 06:04:08;;;;;;;;;;;;;;;18.60;25.91;103105.23;105895;1286;59667;-82
2023/02/10 06:06:33;;;;;;;;;;;;;;;18.56;26.13;103103.00;106035;1285;60622;-81
2023/02/10 06:09:00;;;;;;;;;;;;;;;18.55;25.96;103105.52;106041;1286;60372;-82
2023/02/10 06:11:25;;;;;;;;;;;;;;;18.56;25.87;103102.81;105937;1286;62309;-82
2023/02/10 06:13:51;;;;;;;;;;;;;;;18.55;25.82;103106.60;106229;1286;60013;-82
2023/02/10 06:16:17;;;;;;;;;;;;;;;18.52;25.99;103108.45;106050;1285;61203;-81
2023/02/10 06:18:42;;;;;;;;;;;;;;;18.48;25.85;103111.39;106076;1286;60379;-82
2023/02/10 06:21:09;;;;;;;;;;;;;;;18.44;25.88;103111.66;106152;1284;74567;-81
2023/02/10 06:23:34;;;;;;;;;;;;;;;18.41;25.79;103114.41;106096;1290;59451;-81
2023/02/10 06:26:00;;;;;;;;;;;;;;;18.42;25.72;103112.05;106073;1286;60174;-82
2023/02/10 06:28:25;;;;;;;;;;;;;;;18.44;25.66;103111.85;106002;1285;61317;-82
2023/02/10 06:30:51;;;;;;;;;;;;;;;18.47;25.68;103116.25;106035;1284;62233;-82
2023/02/10 06:33:17;;;;;;;;;;;;;;;18.51;25.63;103120.78;106124;1284;62833;-81
2023/02/10 06:35:43;;;;;;;;;;;;;;;18.56;25.60;103116.74;106037;1286;61166;-81
2023/02/10 06:38:09;;;;;;;;;;;;;;;18.61;25.59;103119.30;105889;1286;60434;-82
2023/02/10 06:40:35;;;;;;;;;;;;;;;18.65;25.59;103122.77;106049;1285;59970;-81
2023/02/10 06:43:01;;;;;;;;;;;;;;;18.67;25.47;103122.37;106142;1285;59134;-81
2023/02/10 06:45:27;;;;;;;;;;;;;;;18.68;25.55;103122.52;106089;1286;61176;-81
2023/02/10 06:47:53;;;;;;;;;;;;;;;18.70;25.33;103117.29;106182;1285;59995;-81
2023/02/10 06:50:19;;;;;;;;;;;;;;;18.73;25.37;103113.83;106041;1286;59575;-81
2023/02/10 06:52:45;;;;;;;;;;;;;;;18.77;25.37;103109.11;105996;1285;60087;-81
2023/02/10 06:55:10;;;;;;;;;;;;;;;18.79;25.31;103107.98;105959;1285;74711;-82
2023/02/10 06:57:36;;;;;;;;;;;;;;;18.82;25.52;103106.65;106089;1285;59652;-81
2023/02/10 07:00:07;;;;;;;;;;;;;;;18.79;25.51;103100.30;106215;1285;60872;-82
2023/02/10 07:02:34;;;;;;;;;;;;;;;18.78;25.58;103099.63;105675;1284;891003;-81
2023/02/10 07:05:02;;;;;;;;;;;;;;;18.78;25.62;103102.13;106542;1286;59316;-81
2023/02/10 07:07:28;;;;;;;;;;;;;;;18.78;25.51;103103.72;106472;1285;59984;-81
2023/02/10 07:09:53;;;;;;;;;;;;;;;18.81;25.66;103102.95;106199;1285;59342;-84
2023/02/10 07:12:20;;;;;;;;;;;;;;;18.83;25.74;103100.20;106174;1285;59964;-82
2023/02/10 07:14:45;;;;;;;;;;;;;;;18.86;25.60;103102.10;106086;1286;59960;-81
2023/02/10 07:17:11;;;;;;;;;;;;;;;18.88;25.73;103101.70;106204;1286;61333;-81
2023/02/10 07:19:36;;;;;;;;;;;;;;;18.89;25.69;103105.95;106092;1286;61298;-82
2023/02/10 07:22:06;;;;;;;;;;;;;;;18.92;25.64;103108.75;106195;1285;59529;-81
2023/02/10 07:24:32;;;;;;;;;;;;;;;18.94;25.73;103105.14;105831;1288;73440;-81
2023/02/10 07:26:59;;;;;;;;;;;;;;;18.96;25.73;103108.48;105754;1288;59674;-81
2023/02/10 07:29:24;;;;;;;;;;;;;;;18.97;25.69;103113.97;105898;1288;62374;-81
2023/02/10 07:31:50;;;;;;;;;;;;;;;18.98;25.74;103115.20;105825;1288;61039;-82
2023/02/10 07:34:19;;;;;;;;;;;;;;;19.01;25.77;103117.80;105732;1289;59649;-81
2023/02/10 07:36:45;;;;;;;;;;;;;;;19.03;25.90;103114.16;105960;1288;74463;-81
2023/02/10 07:39:11;;;;;;;;;;;;;;;19.06;25.90;103111.44;105774;1288;61383;-81
2023/02/10 07:41:37;;;;;;;;;;;;;;;19.07;26.10;103109.08;105779;1289;61640;-81
2023/02/10 07:44:03;;;;;;;;;;;;;;;19.08;26.00;103108.15;105678;1289;61199;-81
2023/02/10 07:46:28;;;;;;;;;;;;;;;19.09;26.18;103112.92;105829;1288;61417;-81
2023/02/10 07:48:54;;;;;;;;;;;;;;;19.12;26.12;103114.31;105672;1289;60532;-81
2023/02/10 07:51:19;;;;;;;;;;;;;;;19.13;26.18;103113.02;105813;1288;61253;-81
2023/02/10 07:53:45;;;;;;;;;;;;;;;19.14;26.29;103111.39;105772;1289;59799;-81
2023/02/10 07:56:10;;;;;;;;;;;;;;;19.08;26.41;103111.20;105664;1288;60883;-81
2023/02/10 07:58:37;;;;;;;;;;;;;;;19.04;26.71;103107.73;105820;1289;62529;-81
2023/02/10 08:01:06;;;;;;;;;;;;;;;19.01;26.83;103105.13;105702;1289;59668;-81
2023/02/10 08:03:32;;;;;;;;;;;;;;;18.96;26.96;103106.86;105719;1288;61308;-81
2023/02/10 08:05:57;;;;;;;;;;;;;;;18.88;26.76;103099.55;105643;1288;60048;-81
2023/02/10 08:08:23;;;;;;;;;;;;;;;18.81;26.76;103103.29;105817;1285;60148;-81
2023/02/10 08:10:48;;;;;;;;;;;;;;;18.74;26.87;103101.14;106013;1285;62515;-81
2023/02/10 08:13:15;;;;;;;;;;;;;;;18.70;26.98;103099.63;106077;1285;59527;-82
2023/02/10 08:15:41;;;;;;;;;;;;;;;18.67;26.90;103101.49;106182;1284;61526;-82
2023/02/10 08:18:07;;;;;;;;;;;;;;;18.66;26.72;103101.15;106201;1286;60228;-80
2023/02/10 08:20:32;;;;;;;;;;;;;;;18.67;26.58;103095.26;106034;1284;61266;-80
2023/02/10 08:22:59;;;;;;;;;;;;;;;18.69;26.48;103088.94;106065;1286;60294;-80
2023/02/10 08:25:24;;;;;;;;;;;;;;;18.73;26.51;103086.52;106086;1285;61112;-80
2023/02/10 08:27:50;;;;;;;;;;;;;;;18.78;26.42;103082.31;106102;1286;59369;-80
2023/02/10 08:30:16;;;;;;;;;;;;;;;18.82;26.37;103080.79;106138;1285;61381;-81
2023/02/10 08:32:41;;;;;;;;;;;;;;;18.86;26.28;103081.55;106235;1285;61372;-81
2023/02/10 08:35:07;;;;;;;;;;;;;;;18.91;26.22;103078.98;105968;1286;60671;-81
2023/02/10 08:37:33;;;;;;;;;;;;;;;18.94;26.23;103072.46;106153;1285;61276;-81
2023/02/10 08:39:59;;;;;;;;;;;;;;;18.99;26.22;103067.17;106193;1285;59412;-81
2023/02/10 08:42:24;;;;;;;;;;;;;;;19.03;26.11;103068.13;106113;1288;60172;-81
2023/02/10 08:44:50;;;;;;;;;;;;;;;19.05;26.11;103065.75;106096;1286;61413;-81
2023/02/10 08:47:16;;;;;;;;;;;;;;;19.08;26.27;103066.39;106056;1286;62296;-81
2023/02/10 08:49:41;;;;;;;;;;;;;;;19.10;26.31;103067.05;106036;1285;59841;-81
2023/02/10 08:52:07;;;;;;;;;;;;;;;19.12;26.23;103064.51;105967;1286;61288;-81
2023/02/10 08:54:32;;;;;;;;;;;;;;;19.14;26.14;103060.89;106124;1286;58892;-81
2023/02/10 08:56:58;;;;;;;;;;;;;;;19.15;26.33;103062.44;106124;1285;60030;-81
2023/02/10 08:59:23;;;;;;;;;;;;;;;19.17;26.21;103057.94;106042;1286;61084;-81
2023/02/10 09:01:49;;;;;;;;;;;;;;;19.19;26.31;103058.06;105973;1286;59496;-82
2023/02/10 09:04:15;;;;;;;;;;;;;;;19.19;26.40;103062.34;106018;1286;61405;-82
2023/02/10 09:06:42;;;;;;;;;;;;;;;19.16;26.55;103060.47;105988;1285;59892;-81
2023/02/10 09:09:08;;;;;;;;;;;;;;;19.11;26.66;103061.50;106051;1286;59920;-81
2023/02/10 09:11:33;;;;;;;;;;;;;;;19.07;26.82;103063.20;105924;1285;61220;-82
2023/02/10 09:13:59;;;;;;;;;;;;;;;19.04;26.87;103060.42;106121;1284;60616;-82
2023/02/10 09:16:24;;;;;;;;;;;;;;;19.00;26.99;103065.73;105998;1286;59256;-81
2023/02/10 09:18:50;;;;;;;;;;;;;;;18.97;27.06;103064.19;106081;1285;59445;-81
2023/02/10 09:21:16;;;;;;;;;;;;;;;18.99;26.93;103068.61;106172;1285;59436;-81
2023/02/10 09:23:41;;;;;;;;;;;;;;;19.01;26.97;103065.50;106098;1286;60094;-81
2023/02/10 09:26:08;;;;;;;;;;;;;;;19.05;26.98;103065.93;106187;1284;61112;-81
2023/02/10 09:28:33;;;;;;;;;;;;;;;19.08;27.08;103072.45;106165;1286;61270;-81
2023/02/10 09:31:00;;;;;;;;;;;;;;;19.12;27.28;103072.55;106041;1286;59915;-81
2023/02/10 09:33:25;;;;;;;;;;;;;;;19.15;27.32;103070.50;106114;1286;59307;-81
2023/02/10 09:35:51;;;;;;;;;;;;;;;19.17;27.41;103074.00;106063;1285;61417;-81
2023/02/10 09:38:16;;;;;;;;;;;;;;;19.18;27.43;103065.56;106090;1285;62900;-81
2023/02/10 09:40:45;;;;;;;;;;;;;;;19.20;27.46;103060.71;106031;1284;60363;-81
2023/02/10 09:43:26;;;;;;;;;;;;;;;19.22;27.51;103061.90;106269;1285;61252;-81
2023/02/10 09:45:53;;;;;;;;;;;;;;;19.25;27.45;103057.36;106181;1284;60392;-81
2023/02/10 09:48:41;;;;;;;;;;;;;;;19.28;27.46;103056.94;106081;1285;73509;-81
2023/02/10 09:51:33;;;;;;;;;;;;;;;19.30;27.51;103057.59;106058;1285;75678;-81
2023/02/10 09:53:59;;;;;;;;;;;;;;;19.33;27.46;103056.61;106170;1285;60200;-81
2023/02/10 09:56:25;;;;;;;;;;;;;;;19.35;27.42;103051.54;106202;1284;59942;-81
2023/02/10 09:58:53;;;;;;;;;;;;;;;19.36;27.50;103047.94;106146;1286;59436;-82
2023/02/10 10:01:22;;;;;;;;;;;;;;;19.35;27.46;103043.86;106066;1284;60088;-81
2023/02/10 10:04:11;;;;;;;;;;;;;;;19.31;27.85;103038.27;106141;1284;61311;-81
2023/02/10 10:06:40;;;;;;;;;;;;;;;19.18;27.72;103028.80;106051;1285;61190;-82
2023/02/10 10:09:13;;;;;;;;;;;;;;;19.03;27.57;103028.33;106077;1286;72726;-81
2023/02/10 10:11:41;;;;;;;;;;;;;;;18.92;27.44;103022.75;106183;1284;74595;-82
2023/02/10 10:14:26;;;;;;;;;;;;;;;18.83;27.59;103015.81;106226;1284;61030;-81
2023/02/10 10:17:21;;;;;;;;;;;;;;;18.78;27.61;103019.15;106133;1285;62008;-81
2023/02/10 10:19:52;;;;;;;;;;;;;;;18.73;27.60;103016.41;105494;1292;72528;-81
2023/02/10 10:22:30;;;;;;;;;;;;;;;18.70;27.40;103014.73;105337;1292;74334;-81
2023/02/10 10:25:28;;;;;;;;;;;;;;;18.68;27.38;103007.11;105503;1291;60556;-81
2023/02/10 10:28:16;;;;;;;;;;;;;;;18.65;27.07;103000.59;104867;1299;61361;-81
2023/02/10 10:31:05;;;;;;;;;;;;;;;18.63;27.06;102994.56;104817;1299;73506;-81
2023/02/10 10:33:45;;;;;;;;;;;;;;;18.64;26.99;102994.19;104782;1301;75453;-81
2023/02/10 10:36:15;;;;;;;;;;;;;;;18.62;26.84;102988.90;104893;1299;61589;-81
2023/02/10 10:38:51;;;;;;;;;;;;;;;18.63;26.72;102983.89;104840;1299;61243;-82
2023/02/10 10:41:18;;;;;;;;;;;;;;;18.64;26.68;102977.26;104923;1299;73759;-81
2023/02/10 10:43:45;;;;;;;;;;;;;;;18.65;26.69;102970.64;104925;1299;74495;-81
2023/02/10 10:46:15;;;;;;;;;;;;;;;18.64;26.70;102962.09;104999;1299;60207;-81
2023/02/10 10:48:41;;;;;;;;;;;;;;;18.64;26.56;102962.98;104889;1299;60965;-82
2023/02/10 10:51:07;;;;;;;;;;;;;;;18.62;26.51;102965.17;104819;1299;72401;-81
2023/02/10 10:53:44;;;;;;;;;;;;;;;18.60;26.47;102960.06;104809;1299;59927;-80
2023/02/10 10:56:13;;;;;;;;;;;;;;;18.55;26.44;102958.75;105066;1292;61371;-82
2023/02/10 10:58:40;;;;;;;;;;;;;;;18.56;26.64;102953.91;105248;1294;61170;-82
2023/02/10 11:01:05;;;;;;;;;;;;;;;18.53;26.59;102949.17;105099;1294;72833;-81
2023/02/10 11:03:31;;;;;;;;;;;;;;;18.53;26.48;102948.10;105320;1291;60790;-81
2023/02/10 11:05:56;;;;;;;;;;;;;;;18.55;26.47;102947.87;105827;1286;61011;-81
2023/02/10 11:08:24;;;;;;;;;;;;;;;18.53;26.43;102945.63;105941;1285;61291;-81
2023/02/10 11:10:53;;;;;;;;;;;;;;;18.47;26.36;102946.48;106082;1286;60199;-81
2023/02/10 11:13:23;;;;;;;;;;;;;;;18.39;26.32;102948.63;105979;1286;76337;-81
2023/02/10 11:15:48;;;;;;;;;;;;;;;18.36;26.25;102947.66;106058;1286;60190;-81
2023/02/10 11:18:18;;;;;;;;;;;;;;;18.35;26.35;102946.62;106058;1285;60262;-82
2023/02/10 11:20:51;;;;;;;;;;;;;;;18.33;26.22;102942.77;105916;1288;72298;-82
2023/02/10 11:23:17;;;;;;;;;;;;;;;18.33;26.20;102938.66;105900;1286;74744;-82
2023/02/10 11:25:47;;;;;;;;;;;;;;;18.34;26.20;102932.20;106028;1285;62317;-83
2023/02/10 11:28:18;;;;;;;;;;;;;;;18.33;26.09;102925.81;105951;1284;60171;-82
2023/02/10 11:30:45;;;;;;;;;;;;;;;18.31;25.88;102915.73;106099;1285;71577;-82
2023/02/10 11:33:21;;;;;;;;;;;;;;;18.28;25.92;102920.41;105933;1286;75406;-81
2023/02/10 11:35:52;;;;;;;;;;;;;;;18.29;25.74;102913.98;106512;1285;61865;-81
2023/02/10 11:38:19;;;;;;;;;;;;;;;18.32;25.83;102914.27;105872;1285;61283;-81
2023/02/10 11:40:57;;;;;;;;;;;;;;;18.32;25.68;102905.35;106083;1286;73438;-81
2023/02/10 11:43:29;;;;;;;;;;;;;;;18.32;25.66;102898.55;106046;1285;74452;-81
2023/02/10 11:45:56;;;;;;;;;;;;;;;18.36;25.70;102896.33;105859;1284;61262;-81
2023/02/10 11:48:22;;;;;;;;;;;;;;;18.38;25.59;102887.89;105861;1286;61147;-81
2023/02/10 11:50:51;;;;;;;;;;;;;;;18.42;25.71;102884.91;106009;1285;59558;-81
2023/02/10 11:53:24;;;;;;;;;;;;;;;18.48;25.78;102878.16;105886;1284;75154;-81
2023/02/10 11:55:53;;;;;;;;;;;;;;;18.51;25.66;102882.20;105731;1286;61119;-82
2023/02/10 12:01:08;;;;;;;;;;;;;;;18.35;25.66;102878.16;106095;1286;73682;-81
2023/02/10 12:03:56;;;;;;;;;;;;;;;18.32;25.71;102881.63;106056;1285;61262;-82
2023/02/10 12:06:21;;;;;;;;;;;;;;;18.31;25.76;102879.53;106048;1285;60257;-81
2023/02/10 12:08:53;;;;;;;;;;;;;;;18.29;25.58;102879.75;105972;1285;61285;-81
2023/02/10 12:11:29;;;;;;;;;;;;;;;18.27;25.63;102873.75;106010;1285;73458;-81
2023/02/10 12:14:07;;;;;;;;;;;;;;;18.23;25.57;102871.17;106435;1284;75122;-81
2023/02/10 12:16:41;;;;;;;;;;;;;;;18.10;25.47;102866.53;105913;1285;62361;-81
2023/02/10 12:19:17;;;;;;;;;;;;;;;18.05;25.68;102867.20;106038;1285;60477;-81
2023/02/10 12:22:05;;;;;;;;;;;;;;;18.03;25.67;102872.73;105914;1285;72429;-82
2023/02/10 12:24:58;;;;;;;;;;;;;;;18.03;25.67;102868.83;105988;1285;74241;-81
2023/02/10 12:27:48;;;;;;;;;;;;;;;18.03;25.54;102863.83;105456;1291;60997;-81
2023/02/10 12:30:26;;;;;;;;;;;;;;;18.04;25.65;102860.45;104868;1299;60489;-81
2023/02/10 12:33:11;;;;;;;;;;;;;;;18.07;26.17;102855.19;104756;1299;73561;-81
2023/02/10 12:35:56;;;;;;;;;;;;;;;18.22;26.84;102859.25;104894;1299;75713;-81